sensor_id;sensor_type;location;lat;lon;timestamp;temperature;humidity
22925;DHT22;11628;51.072;3.712;2023-04-24T00:02:11;10.80;99.90
22925;DHT22;11628;51.072;3.712;2023-04-24T00:04:38;10.80;99.90
22925;DHT22;11628;51.072;3.712;2023-04-24T00:07:11;10.80;99.90
22925;DHT22;11628;51.072;3.712;2023-04-24T00:09:36;10.80;99.90
22925;DHT22;11628;51.072;3.712;2023-04-24T00:12:02;10.70;99.90
22925;DHT22;11628;51.072;3.712;2023-04-24T00:14:31;10.70;99.90
22925;DHT22;11628;51.072;3.712;2023-04-24T00:16:57;10.70;99.90
22925;DHT22;11628;51.072;3.712;2023-04-24T00:19:23;10.80;99.90
22925;DHT22;11628;51.072;3.712;2023-04-24T00:21:48;10.80;99.90
22925;DHT22;11628;51.072;3.712;2023-04-24T00:24:17;10.80;99.90
22925;DHT22;11628;51.072;3.712;2023-04-24T00:26:43;10.70;99.90
22925;DHT22;11628;51.072;3.712;2023-04-24T00:29:09;10.80;99.90
22925;DHT22;11628;51.072;3.712;2023-04-24T00:31:35;10.60;99.90
22925;DHT22;11628;51.072;3.712;2023-04-24T00:34:04;10.60;99.90
22925;DHT22;11628;51.072;3.712;2023-04-24T00:36:30;10.60;99.90
22925;DHT22;11628;51.072;3.712;2023-04-24T00:38:57;10.50;99.90
22925;DHT22;11628;51.072;3.712;2023-04-24T00:41:24;10.50;99.90
22925;DHT22;11628;51.072;3.712;2023-04-24T00:43:51;10.50;99.90
22925;DHT22;11628;51.072;3.712;2023-04-24T00:46:17;10.50;99.90
22925;DHT22;11628;51.072;3.712;2023-04-24T00:48:43;10.60;99.90
22925;DHT22;11628;51.072;3.712;2023-04-24T00:51:09;10.50;99.90
22925;DHT22;11628;51.072;3.712;2023-04-24T00:53:35;10.40;99.90
22925;DHT22;11628;51.072;3.712;2023-04-24T00:56:02;10.40;99.90
22925;DHT22;11628;51.072;3.712;2023-04-24T00:58:28;10.50;99.90
22925;DHT22;11628;51.072;3.712;2023-04-24T01:00:54;10.60;99.90
22925;DHT22;11628;51.072;3.712;2023-04-24T01:03:26;10.60;99.90
22925;DHT22;11628;51.072;3.712;2023-04-24T01:05:54;10.60;99.90
22925;DHT22;11628;51.072;3.712;2023-04-24T01:08:26;10.40;99.90
22925;DHT22;11628;51.072;3.712;2023-04-24T01:10:53;10.50;99.90
22925;DHT22;11628;51.072;3.712;2023-04-24T01:13:20;10.50;99.90
22925;DHT22;11628;51.072;3.712;2023-04-24T01:15:46;10.50;99.90
22925;DHT22;11628;51.072;3.712;2023-04-24T01:18:12;10.50;99.90
22925;DHT22;11628;51.072;3.712;2023-04-24T01:20:40;10.40;99.90
22925;DHT22;11628;51.072;3.712;2023-04-24T01:23:07;10.50;99.90
22925;DHT22;11628;51.072;3.712;2023-04-24T01:25:33;10.40;99.90
22925;DHT22;11628;51.072;3.712;2023-04-24T01:27:59;10.30;99.90
22925;DHT22;11628;51.072;3.712;2023-04-24T01:30:26;10.30;99.90
22925;DHT22;11628;51.072;3.712;2023-04-24T01:32:53;10.40;99.90
22925;DHT22;11628;51.072;3.712;2023-04-24T01:35:19;10.30;99.90
22925;DHT22;11628;51.072;3.712;2023-04-24T01:37:45;10.40;99.90
22925;DHT22;11628;51.072;3.712;2023-04-24T01:40:11;10.30;99.90
22925;DHT22;11628;51.072;3.712;2023-04-24T01:42:37;10.30;99.90
22925;DHT22;11628;51.072;3.712;2023-04-24T01:45:04;10.20;99.90
22925;DHT22;11628;51.072;3.712;2023-04-24T01:47:31;10.20;99.90
22925;DHT22;11628;51.072;3.712;2023-04-24T01:49:57;10.20;99.90
22925;DHT22;11628;51.072;3.712;2023-04-24T01:52:23;10.10;99.90
22925;DHT22;11628;51.072;3.712;2023-04-24T01:54:50;10.10;99.90
22925;DHT22;11628;51.072;3.712;2023-04-24T01:57:16;10.00;99.90
22925;DHT22;11628;51.072;3.712;2023-04-24T01:59:42;10.00;99.90
22925;DHT22;11628;51.072;3.712;2023-04-24T02:02:08;9.90;99.90
22925;DHT22;11628;51.072;3.712;2023-04-24T02:04:33;10.00;99.90
22925;DHT22;11628;51.072;3.712;2023-04-24T02:06:59;9.90;99.90
22925;DHT22;11628;51.072;3.712;2023-04-24T02:09:25;9.90;99.90
22925;DHT22;11628;51.072;3.712;2023-04-24T02:11:50;9.90;99.90
22925;DHT22;11628;51.072;3.712;2023-04-24T02:14:16;9.90;99.90
22925;DHT22;11628;51.072;3.712;2023-04-24T02:16:42;9.80;99.90
22925;DHT22;11628;51.072;3.712;2023-04-24T02:19:09;9.90;99.90
22925;DHT22;11628;51.072;3.712;2023-04-24T02:21:35;9.90;99.90
22925;DHT22;11628;51.072;3.712;2023-04-24T02:24:01;10.00;99.90
22925;DHT22;11628;51.072;3.712;2023-04-24T02:26:27;10.00;99.90
22925;DHT22;11628;51.072;3.712;2023-04-24T02:28:53;10.00;99.90
22925;DHT22;11628;51.072;3.712;2023-04-24T02:31:19;10.10;99.90
22925;DHT22;11628;51.072;3.712;2023-04-24T02:33:44;10.10;99.90
22925;DHT22;11628;51.072;3.712;2023-04-24T02:36:10;10.20;99.90
22925;DHT22;11628;51.072;3.712;2023-04-24T02:38:36;10.20;99.90
22925;DHT22;11628;51.072;3.712;2023-04-24T02:41:01;10.20;99.90
22925;DHT22;11628;51.072;3.712;2023-04-24T02:43:29;10.20;99.90
22925;DHT22;11628;51.072;3.712;2023-04-24T02:45:55;10.30;99.90
22925;DHT22;11628;51.072;3.712;2023-04-24T02:48:20;10.40;99.90
22925;DHT22;11628;51.072;3.712;2023-04-24T02:50:46;10.30;99.90
22925;DHT22;11628;51.072;3.712;2023-04-24T02:53:12;10.40;99.90
22925;DHT22;11628;51.072;3.712;2023-04-24T02:55:38;10.40;99.90
22925;DHT22;11628;51.072;3.712;2023-04-24T02:58:04;10.50;99.90
22925;DHT22;11628;51.072;3.712;2023-04-24T03:00:29;10.50;99.90
22925;DHT22;11628;51.072;3.712;2023-04-24T03:02:55;10.60;99.90
22925;DHT22;11628;51.072;3.712;2023-04-24T03:05:21;10.50;99.90
22925;DHT22;11628;51.072;3.712;2023-04-24T03:07:47;10.50;99.90
22925;DHT22;11628;51.072;3.712;2023-04-24T03:10:13;10.50;99.90
22925;DHT22;11628;51.072;3.712;2023-04-24T03:12:38;10.50;99.90
22925;DHT22;11628;51.072;3.712;2023-04-24T03:15:05;10.50;99.90
22925;DHT22;11628;51.072;3.712;2023-04-24T03:17:31;10.50;99.90
22925;DHT22;11628;51.072;3.712;2023-04-24T03:19:56;10.50;99.90
22925;DHT22;11628;51.072;3.712;2023-04-24T03:22:22;10.40;99.90
22925;DHT22;11628;51.072;3.712;2023-04-24T03:24:48;10.40;99.90
22925;DHT22;11628;51.072;3.712;2023-04-24T03:27:13;10.30;99.90
22925;DHT22;11628;51.072;3.712;2023-04-24T03:29:39;10.30;99.90
22925;DHT22;11628;51.072;3.712;2023-04-24T03:32:05;10.30;99.90
22925;DHT22;11628;51.072;3.712;2023-04-24T03:34:30;10.30;99.90
22925;DHT22;11628;51.072;3.712;2023-04-24T03:36:56;10.30;99.90
22925;DHT22;11628;51.072;3.712;2023-04-24T03:39:22;10.40;99.90
22925;DHT22;11628;51.072;3.712;2023-04-24T03:41:47;10.30;99.90
22925;DHT22;11628;51.072;3.712;2023-04-24T03:44:13;10.30;99.90
22925;DHT22;11628;51.072;3.712;2023-04-24T03:46:39;10.30;99.90
22925;DHT22;11628;51.072;3.712;2023-04-24T03:49:05;10.20;99.90
22925;DHT22;11628;51.072;3.712;2023-04-24T03:51:31;10.10;99.90
22925;DHT22;11628;51.072;3.712;2023-04-24T03:53:57;10.10;99.90
22925;DHT22;11628;51.072;3.712;2023-04-24T03:56:22;10.00;99.90
22925;DHT22;11628;51.072;3.712;2023-04-24T03:58:48;10.00;99.90
22925;DHT22;11628;51.072;3.712;2023-04-24T04:01:14;10.00;99.90
22925;DHT22;11628;51.072;3.712;2023-04-24T04:03:41;10.00;99.90
22925;DHT22;11628;51.072;3.712;2023-04-24T04:06:07;10.00;99.90
22925;DHT22;11628;51.072;3.712;2023-04-24T04:08:32;10.00;99.90
22925;DHT22;11628;51.072;3.712;2023-04-24T04:10:58;10.00;99.90
22925;DHT22;11628;51.072;3.712;2023-04-24T04:13:24;10.00;99.90
22925;DHT22;11628;51.072;3.712;2023-04-24T04:15:49;10.00;99.90
22925;DHT22;11628;51.072;3.712;2023-04-24T04:18:15;10.00;99.90
22925;DHT22;11628;51.072;3.712;2023-04-24T04:20:41;10.00;99.90
22925;DHT22;11628;51.072;3.712;2023-04-24T04:23:07;10.00;99.90
22925;DHT22;11628;51.072;3.712;2023-04-24T04:25:33;10.00;99.90
22925;DHT22;11628;51.072;3.712;2023-04-24T04:27:59;10.00;99.90
22925;DHT22;11628;51.072;3.712;2023-04-24T04:30:25;10.00;99.90
22925;DHT22;11628;51.072;3.712;2023-04-24T04:32:51;10.00;99.90
22925;DHT22;11628;51.072;3.712;2023-04-24T04:35:18;10.00;99.90
22925;DHT22;11628;51.072;3.712;2023-04-24T04:37:44;10.00;99.90
22925;DHT22;11628;51.072;3.712;2023-04-24T04:40:11;10.00;99.90
22925;DHT22;11628;51.072;3.712;2023-04-24T04:42:37;9.90;99.90
22925;DHT22;11628;51.072;3.712;2023-04-24T04:45:09;9.90;99.90
22925;DHT22;11628;51.072;3.712;2023-04-24T04:47:36;9.80;99.90
22925;DHT22;11628;51.072;3.712;2023-04-24T04:50:02;9.80;99.90
22925;DHT22;11628;51.072;3.712;2023-04-24T04:52:29;9.80;99.90
22925;DHT22;11628;51.072;3.712;2023-04-24T04:54:55;9.80;99.90
22925;DHT22;11628;51.072;3.712;2023-04-24T04:57:21;9.80;99.90
22925;DHT22;11628;51.072;3.712;2023-04-24T04:59:47;9.80;99.90
22925;DHT22;11628;51.072;3.712;2023-04-24T05:02:12;9.80;99.90
22925;DHT22;11628;51.072;3.712;2023-04-24T05:04:38;9.70;99.90
22925;DHT22;11628;51.072;3.712;2023-04-24T05:07:04;9.70;99.90
22925;DHT22;11628;51.072;3.712;2023-04-24T05:09:30;9.70;99.90
22925;DHT22;11628;51.072;3.712;2023-04-24T05:11:56;9.70;99.90
22925;DHT22;11628;51.072;3.712;2023-04-24T05:14:22;9.80;99.90
22925;DHT22;11628;51.072;3.712;2023-04-24T05:16:47;9.80;99.90
22925;DHT22;11628;51.072;3.712;2023-04-24T05:19:13;9.80;99.90
22925;DHT22;11628;51.072;3.712;2023-04-24T05:21:40;9.80;99.90
22925;DHT22;11628;51.072;3.712;2023-04-24T05:24:06;9.80;99.90
22925;DHT22;11628;51.072;3.712;2023-04-24T05:26:32;9.80;99.90
22925;DHT22;11628;51.072;3.712;2023-04-24T05:28:58;9.90;99.90
22925;DHT22;11628;51.072;3.712;2023-04-24T05:31:23;9.80;99.90
22925;DHT22;11628;51.072;3.712;2023-04-24T05:33:49;9.90;99.90
22925;DHT22;11628;51.072;3.712;2023-04-24T05:36:15;9.90;99.90
22925;DHT22;11628;51.072;3.712;2023-04-24T05:38:41;9.80;99.90
22925;DHT22;11628;51.072;3.712;2023-04-24T05:41:06;9.80;99.90
22925;DHT22;11628;51.072;3.712;2023-04-24T05:43:32;9.90;99.90
22925;DHT22;11628;51.072;3.712;2023-04-24T05:45:58;9.80;99.90
22925;DHT22;11628;51.072;3.712;2023-04-24T05:48:24;9.80;99.90
22925;DHT22;11628;51.072;3.712;2023-04-24T05:50:49;9.80;99.90
22925;DHT22;11628;51.072;3.712;2023-04-24T05:53:16;9.90;99.90
22925;DHT22;11628;51.072;3.712;2023-04-24T05:55:41;9.90;99.90
22925;DHT22;11628;51.072;3.712;2023-04-24T05:58:07;9.90;99.90
22925;DHT22;11628;51.072;3.712;2023-04-24T06:00:33;9.90;99.90
22925;DHT22;11628;51.072;3.712;2023-04-24T06:02:59;10.00;99.90
22925;DHT22;11628;51.072;3.712;2023-04-24T06:05:25;10.00;99.90
22925;DHT22;11628;51.072;3.712;2023-04-24T06:07:51;10.10;99.90
22925;DHT22;11628;51.072;3.712;2023-04-24T06:10:17;10.20;99.90
22925;DHT22;11628;51.072;3.712;2023-04-24T06:12:43;10.20;99.90
22925;DHT22;11628;51.072;3.712;2023-04-24T06:15:09;10.30;99.90
22925;DHT22;11628;51.072;3.712;2023-04-24T06:17:35;10.40;99.90
22925;DHT22;11628;51.072;3.712;2023-04-24T06:20:01;10.30;99.90
22925;DHT22;11628;51.072;3.712;2023-04-24T06:22:27;10.40;99.90
22925;DHT22;11628;51.072;3.712;2023-04-24T06:24:53;10.50;99.90
22925;DHT22;11628;51.072;3.712;2023-04-24T06:27:18;10.60;99.90
22925;DHT22;11628;51.072;3.712;2023-04-24T06:29:44;10.70;99.90
22925;DHT22;11628;51.072;3.712;2023-04-24T06:32:10;10.80;99.90
22925;DHT22;11628;51.072;3.712;2023-04-24T06:34:35;11.10;99.90
22925;DHT22;11628;51.072;3.712;2023-04-24T06:37:02;11.30;99.90
22925;DHT22;11628;51.072;3.712;2023-04-24T06:39:27;11.30;99.90
22925;DHT22;11628;51.072;3.712;2023-04-24T06:41:53;11.30;99.90
22925;DHT22;11628;51.072;3.712;2023-04-24T06:44:19;11.40;99.90
22925;DHT22;11628;51.072;3.712;2023-04-24T06:46:44;11.50;99.90
22925;DHT22;11628;51.072;3.712;2023-04-24T06:49:10;11.50;99.90
22925;DHT22;11628;51.072;3.712;2023-04-24T06:51:36;11.70;99.90
22925;DHT22;11628;51.072;3.712;2023-04-24T06:54:02;11.80;99.90
22925;DHT22;11628;51.072;3.712;2023-04-24T06:56:28;11.90;99.90
22925;DHT22;11628;51.072;3.712;2023-04-24T06:58:54;12.10;99.90
22925;DHT22;11628;51.072;3.712;2023-04-24T07:01:20;12.20;99.90
22925;DHT22;11628;51.072;3.712;2023-04-24T07:03:46;12.30;99.90
22925;DHT22;11628;51.072;3.712;2023-04-24T07:06:12;12.40;99.90
22925;DHT22;11628;51.072;3.712;2023-04-24T07:08:38;12.60;99.90
22925;DHT22;11628;51.072;3.712;2023-04-24T07:11:04;12.50;99.90
22925;DHT22;11628;51.072;3.712;2023-04-24T07:13:29;12.30;99.90
22925;DHT22;11628;51.072;3.712;2023-04-24T07:15:55;12.10;99.90
22925;DHT22;11628;51.072;3.712;2023-04-24T07:18:22;12.00;99.90
22925;DHT22;11628;51.072;3.712;2023-04-24T07:20:47;11.90;99.90
22925;DHT22;11628;51.072;3.712;2023-04-24T07:23:15;11.90;99.90
22925;DHT22;11628;51.072;3.712;2023-04-24T07:25:41;11.90;99.90
22925;DHT22;11628;51.072;3.712;2023-04-24T07:28:07;12.00;99.90
22925;DHT22;11628;51.072;3.712;2023-04-24T07:30:32;12.20;99.90
22925;DHT22;11628;51.072;3.712;2023-04-24T07:32:59;12.20;99.90
22925;DHT22;11628;51.072;3.712;2023-04-24T07:35:25;12.30;99.90
22925;DHT22;11628;51.072;3.712;2023-04-24T07:37:54;12.30;99.90
22925;DHT22;11628;51.072;3.712;2023-04-24T07:40:21;12.30;99.90
22925;DHT22;11628;51.072;3.712;2023-04-24T07:42:47;12.40;99.90
22925;DHT22;11628;51.072;3.712;2023-04-24T07:45:16;12.30;99.90
22925;DHT22;11628;51.072;3.712;2023-04-24T07:47:42;12.20;99.90
22925;DHT22;11628;51.072;3.712;2023-04-24T07:50:12;12.20;99.90
22925;DHT22;11628;51.072;3.712;2023-04-24T07:52:38;12.20;99.90
22925;DHT22;11628;51.072;3.712;2023-04-24T07:55:04;12.40;99.90
22925;DHT22;11628;51.072;3.712;2023-04-24T07:57:30;12.30;99.90
22925;DHT22;11628;51.072;3.712;2023-04-24T07:59:56;12.30;99.90
22925;DHT22;11628;51.072;3.712;2023-04-24T08:02:21;12.40;99.90
22925;DHT22;11628;51.072;3.712;2023-04-24T08:04:52;12.60;99.90
22925;DHT22;11628;51.072;3.712;2023-04-24T08:07:19;12.80;99.90
22925;DHT22;11628;51.072;3.712;2023-04-24T08:09:45;13.00;99.90
22925;DHT22;11628;51.072;3.712;2023-04-24T08:12:10;13.20;99.90
22925;DHT22;11628;51.072;3.712;2023-04-24T08:14:36;13.50;99.90
22925;DHT22;11628;51.072;3.712;2023-04-24T08:17:02;14.00;99.90
22925;DHT22;11628;51.072;3.712;2023-04-24T08:19:28;14.00;99.90
22925;DHT22;11628;51.072;3.712;2023-04-24T08:21:54;13.80;99.90
22925;DHT22;11628;51.072;3.712;2023-04-24T08:24:20;13.70;99.90
22925;DHT22;11628;51.072;3.712;2023-04-24T08:26:46;13.40;99.90
22925;DHT22;11628;51.072;3.712;2023-04-24T08:29:14;13.50;99.90
22925;DHT22;11628;51.072;3.712;2023-04-24T08:31:40;13.50;99.90
22925;DHT22;11628;51.072;3.712;2023-04-24T08:34:06;13.90;99.90
22925;DHT22;11628;51.072;3.712;2023-04-24T08:36:31;14.60;99.90
22925;DHT22;11628;51.072;3.712;2023-04-24T08:38:57;14.60;99.90
22925;DHT22;11628;51.072;3.712;2023-04-24T08:41:23;14.90;99.90
22925;DHT22;11628;51.072;3.712;2023-04-24T08:43:51;15.30;99.90
22925;DHT22;11628;51.072;3.712;2023-04-24T08:46:19;16.50;99.90
22925;DHT22;11628;51.072;3.712;2023-04-24T08:48:45;17.50;99.90
22925;DHT22;11628;51.072;3.712;2023-04-24T08:51:11;18.40;99.90
22925;DHT22;11628;51.072;3.712;2023-04-24T08:53:37;18.20;99.90
22925;DHT22;11628;51.072;3.712;2023-04-24T08:56:03;17.20;99.90
22925;DHT22;11628;51.072;3.712;2023-04-24T08:58:29;16.50;99.90
22925;DHT22;11628;51.072;3.712;2023-04-24T09:00:56;15.80;99.90
22925;DHT22;11628;51.072;3.712;2023-04-24T09:03:22;15.40;99.90
22925;DHT22;11628;51.072;3.712;2023-04-24T09:05:49;15.20;99.90
22925;DHT22;11628;51.072;3.712;2023-04-24T09:08:18;15.30;99.90
22925;DHT22;11628;51.072;3.712;2023-04-24T09:10:44;15.00;99.90
22925;DHT22;11628;51.072;3.712;2023-04-24T09:13:10;15.00;99.90
22925;DHT22;11628;51.072;3.712;2023-04-24T09:15:40;15.00;99.90
22925;DHT22;11628;51.072;3.712;2023-04-24T09:18:06;15.10;99.90
22925;DHT22;11628;51.072;3.712;2023-04-24T09:20:32;15.10;99.90
22925;DHT22;11628;51.072;3.712;2023-04-24T09:22:58;15.00;99.90
22925;DHT22;11628;51.072;3.712;2023-04-24T09:25:34;15.00;99.90
22925;DHT22;11628;51.072;3.712;2023-04-24T09:28:04;14.90;99.90
22925;DHT22;11628;51.072;3.712;2023-04-24T09:30:32;15.30;99.90
22925;DHT22;11628;51.072;3.712;2023-04-24T09:33:30;16.10;99.90
22925;DHT22;11628;51.072;3.712;2023-04-24T09:35:56;16.50;99.90
22925;DHT22;11628;51.072;3.712;2023-04-24T09:38:35;16.50;99.90
22925;DHT22;11628;51.072;3.712;2023-04-24T09:41:08;17.40;99.90
22925;DHT22;11628;51.072;3.712;2023-04-24T09:43:38;17.50;99.90
22925;DHT22;11628;51.072;3.712;2023-04-24T09:46:08;17.50;99.90
22925;DHT22;11628;51.072;3.712;2023-04-24T09:48:37;17.20;99.90
22925;DHT22;11628;51.072;3.712;2023-04-24T09:51:05;17.10;99.90
22925;DHT22;11628;51.072;3.712;2023-04-24T09:53:36;17.00;99.90
22925;DHT22;11628;51.072;3.712;2023-04-24T09:56:09;16.90;99.90
22925;DHT22;11628;51.072;3.712;2023-04-24T09:58:36;16.60;99.90
22925;DHT22;11628;51.072;3.712;2023-04-24T10:01:03;16.80;99.90
22925;DHT22;11628;51.072;3.712;2023-04-24T10:03:33;16.90;99.90
22925;DHT22;11628;51.072;3.712;2023-04-24T10:06:00;16.70;99.90
22925;DHT22;11628;51.072;3.712;2023-04-24T10:08:26;17.80;99.90
22925;DHT22;11628;51.072;3.712;2023-04-24T10:10:59;18.50;99.90
22925;DHT22;11628;51.072;3.712;2023-04-24T10:13:25;18.80;99.90
22925;DHT22;11628;51.072;3.712;2023-04-24T10:15:51;19.00;99.90
22925;DHT22;11628;51.072;3.712;2023-04-24T10:18:17;18.80;99.90
22925;DHT22;11628;51.072;3.712;2023-04-24T10:20:44;18.70;99.90
22925;DHT22;11628;51.072;3.712;2023-04-24T10:23:10;18.40;99.90
22925;DHT22;11628;51.072;3.712;2023-04-24T10:25:37;18.30;99.90
22925;DHT22;11628;51.072;3.712;2023-04-24T10:28:04;19.40;99.90
22925;DHT22;11628;51.072;3.712;2023-04-24T10:30:32;19.80;99.90
22925;DHT22;11628;51.072;3.712;2023-04-24T10:33:04;19.90;99.90
22925;DHT22;11628;51.072;3.712;2023-04-24T10:35:31;19.80;99.90
22925;DHT22;11628;51.072;3.712;2023-04-24T10:40:33;20.40;99.90
22925;DHT22;11628;51.072;3.712;2023-04-24T10:43:01;23.40;99.90
22925;DHT22;11628;51.072;3.712;2023-04-24T10:45:28;24.10;99.90
22925;DHT22;11628;51.072;3.712;2023-04-24T10:48:01;24.10;99.90
22925;DHT22;11628;51.072;3.712;2023-04-24T10:50:28;24.90;99.90
22925;DHT22;11628;51.072;3.712;2023-04-24T10:53:06;25.20;97.40
22925;DHT22;11628;51.072;3.712;2023-04-24T10:55:44;25.00;95.60
22925;DHT22;11628;51.072;3.712;2023-04-24T10:58:10;24.30;95.40
22925;DHT22;11628;51.072;3.712;2023-04-24T11:00:40;23.20;95.50
22925;DHT22;11628;51.072;3.712;2023-04-24T11:03:23;23.40;98.90
22925;DHT22;11628;51.072;3.712;2023-04-24T11:08:24;24.60;94.30
22925;DHT22;11628;51.072;3.712;2023-04-24T11:11:17;25.30;93.90
22925;DHT22;11628;51.072;3.712;2023-04-24T11:21:47;30.50;80.10
22925;DHT22;11628;51.072;3.712;2023-04-24T11:27:11;26.50;79.10
22925;DHT22;11628;51.072;3.712;2023-04-24T11:35:01;25.00;80.60
22925;DHT22;11628;51.072;3.712;2023-04-24T11:37:39;23.70;85.40
22925;DHT22;11628;51.072;3.712;2023-04-24T11:40:08;22.80;88.80
22925;DHT22;11628;51.072;3.712;2023-04-24T11:42:35;23.10;90.10
22925;DHT22;11628;51.072;3.712;2023-04-24T11:47:43;25.10;84.10
22925;DHT22;11628;51.072;3.712;2023-04-24T11:50:15;27.40;80.60
22925;DHT22;11628;51.072;3.712;2023-04-24T11:52:43;29.20;81.70
22925;DHT22;11628;51.072;3.712;2023-04-24T11:57:59;28.60;73.10
22925;DHT22;11628;51.072;3.712;2023-04-24T12:00:31;27.40;74.50
22925;DHT22;11628;51.072;3.712;2023-04-24T12:03:08;27.40;74.20
22925;DHT22;11628;51.072;3.712;2023-04-24T12:05:35;26.70;74.90
22925;DHT22;11628;51.072;3.712;2023-04-24T12:08:01;25.90;74.80
22925;DHT22;11628;51.072;3.712;2023-04-24T12:10:29;25.50;78.50
22925;DHT22;11628;51.072;3.712;2023-04-24T12:12:56;27.10;75.00
22925;DHT22;11628;51.072;3.712;2023-04-24T12:15:26;28.50;70.70
22925;DHT22;11628;51.072;3.712;2023-04-24T12:17:54;29.00;68.40
22925;DHT22;11628;51.072;3.712;2023-04-24T12:20:28;29.40;67.70
22925;DHT22;11628;51.072;3.712;2023-04-24T12:22:56;30.20;67.00
22925;DHT22;11628;51.072;3.712;2023-04-24T12:25:25;30.50;64.70
22925;DHT22;11628;51.072;3.712;2023-04-24T12:30:29;31.10;63.00
22925;DHT22;11628;51.072;3.712;2023-04-24T12:32:58;31.50;62.10
22925;DHT22;11628;51.072;3.712;2023-04-24T12:35:29;31.40;61.30
22925;DHT22;11628;51.072;3.712;2023-04-24T12:37:55;31.70;60.90
22925;DHT22;11628;51.072;3.712;2023-04-24T12:40:21;32.90;59.00
22925;DHT22;11628;51.072;3.712;2023-04-24T12:42:51;33.70;57.60
22925;DHT22;11628;51.072;3.712;2023-04-24T12:45:19;33.80;56.90
22925;DHT22;11628;51.072;3.712;2023-04-24T12:47:45;33.00;56.60
22925;DHT22;11628;51.072;3.712;2023-04-24T12:50:15;32.50;56.30
22925;DHT22;11628;51.072;3.712;2023-04-24T12:52:42;31.40;57.40
22925;DHT22;11628;51.072;3.712;2023-04-24T12:55:12;31.50;58.00
22925;DHT22;11628;51.072;3.712;2023-04-24T12:57:41;33.20;57.00
22925;DHT22;11628;51.072;3.712;2023-04-24T13:00:08;34.10;54.20
22925;DHT22;11628;51.072;3.712;2023-04-24T13:02:34;34.80;53.30
22925;DHT22;11628;51.072;3.712;2023-04-24T13:05:02;34.90;52.50
22925;DHT22;11628;51.072;3.712;2023-04-24T13:07:29;34.30;53.20
22925;DHT22;11628;51.072;3.712;2023-04-24T13:09:58;33.80;53.30
22925;DHT22;11628;51.072;3.712;2023-04-24T13:12:24;32.70;53.60
22925;DHT22;11628;51.072;3.712;2023-04-24T13:14:51;32.50;53.80
22925;DHT22;11628;51.072;3.712;2023-04-24T13:17:17;32.50;53.60
22925;DHT22;11628;51.072;3.712;2023-04-24T13:19:44;33.20;53.10
22925;DHT22;11628;51.072;3.712;2023-04-24T13:22:11;33.70;52.60
22925;DHT22;11628;51.072;3.712;2023-04-24T13:24:39;34.00;51.60
22925;DHT22;11628;51.072;3.712;2023-04-24T13:27:10;34.60;51.20
22925;DHT22;11628;51.072;3.712;2023-04-24T13:29:37;35.20;50.70
22925;DHT22;11628;51.072;3.712;2023-04-24T13:32:06;34.90;50.90
22925;DHT22;11628;51.072;3.712;2023-04-24T13:34:32;34.70;51.50
22925;DHT22;11628;51.072;3.712;2023-04-24T13:36:59;33.80;51.80
22925;DHT22;11628;51.072;3.712;2023-04-24T13:39:25;32.40;53.00
22925;DHT22;11628;51.072;3.712;2023-04-24T13:41:54;31.40;53.50
22925;DHT22;11628;51.072;3.712;2023-04-24T13:44:21;32.00;53.80
22925;DHT22;11628;51.072;3.712;2023-04-24T13:46:49;32.90;52.40
22925;DHT22;11628;51.072;3.712;2023-04-24T13:49:18;33.30;51.40
22925;DHT22;11628;51.072;3.712;2023-04-24T13:51:47;33.40;51.60
22925;DHT22;11628;51.072;3.712;2023-04-24T13:54:15;32.40;51.10
22925;DHT22;11628;51.072;3.712;2023-04-24T13:56:44;30.50;52.70
22925;DHT22;11628;51.072;3.712;2023-04-24T13:59:14;29.00;54.80
22925;DHT22;11628;51.072;3.712;2023-04-24T14:01:43;29.70;55.20
22925;DHT22;11628;51.072;3.712;2023-04-24T14:04:10;31.00;54.20
22925;DHT22;11628;51.072;3.712;2023-04-24T14:06:38;32.40;53.20
22925;DHT22;11628;51.072;3.712;2023-04-24T14:09:07;33.40;51.30
22925;DHT22;11628;51.072;3.712;2023-04-24T14:11:34;33.30;50.60
22925;DHT22;11628;51.072;3.712;2023-04-24T14:14:00;32.80;50.80
22925;DHT22;11628;51.072;3.712;2023-04-24T14:16:29;31.70;52.10
22925;DHT22;11628;51.072;3.712;2023-04-24T14:18:58;30.70;53.80
22925;DHT22;11628;51.072;3.712;2023-04-24T14:21:24;30.30;54.00
22925;DHT22;11628;51.072;3.712;2023-04-24T14:23:50;30.40;53.60
22925;DHT22;11628;51.072;3.712;2023-04-24T14:26:18;31.30;52.50
22925;DHT22;11628;51.072;3.712;2023-04-24T14:28:47;32.30;52.10
22925;DHT22;11628;51.072;3.712;2023-04-24T14:31:15;32.60;50.90
22925;DHT22;11628;51.072;3.712;2023-04-24T14:33:42;31.70;51.80
22925;DHT22;11628;51.072;3.712;2023-04-24T14:36:07;30.40;52.80
22925;DHT22;11628;51.072;3.712;2023-04-24T14:38:38;30.10;53.10
22925;DHT22;11628;51.072;3.712;2023-04-24T14:41:08;29.50;53.50
22925;DHT22;11628;51.072;3.712;2023-04-24T14:43:35;28.60;54.00
22925;DHT22;11628;51.072;3.712;2023-04-24T14:46:02;27.50;55.10
22925;DHT22;11628;51.072;3.712;2023-04-24T14:48:33;26.40;56.70
22925;DHT22;11628;51.072;3.712;2023-04-24T14:51:02;25.60;57.70
22925;DHT22;11628;51.072;3.712;2023-04-24T14:53:28;25.10;58.30
22925;DHT22;11628;51.072;3.712;2023-04-24T14:55:54;24.50;59.20
22925;DHT22;11628;51.072;3.712;2023-04-24T14:58:20;24.10;60.30
22925;DHT22;11628;51.072;3.712;2023-04-24T15:00:46;23.70;60.70
22925;DHT22;11628;51.072;3.712;2023-04-24T15:03:15;23.20;60.60
22925;DHT22;11628;51.072;3.712;2023-04-24T15:05:41;22.90;62.20
22925;DHT22;11628;51.072;3.712;2023-04-24T15:08:06;22.70;62.80
22925;DHT22;11628;51.072;3.712;2023-04-24T15:10:41;22.60;63.60
22925;DHT22;11628;51.072;3.712;2023-04-24T15:13:10;22.40;63.70
22925;DHT22;11628;51.072;3.712;2023-04-24T15:15:44;22.20;64.10
22925;DHT22;11628;51.072;3.712;2023-04-24T15:18:13;22.10;63.80
22925;DHT22;11628;51.072;3.712;2023-04-24T15:20:39;21.90;63.60
22925;DHT22;11628;51.072;3.712;2023-04-24T15:23:09;21.70;64.50
22925;DHT22;11628;51.072;3.712;2023-04-24T15:25:37;21.60;65.30
22925;DHT22;11628;51.072;3.712;2023-04-24T15:28:05;21.50;66.20
22925;DHT22;11628;51.072;3.712;2023-04-24T15:30:34;21.40;66.20
22925;DHT22;11628;51.072;3.712;2023-04-24T15:33:00;21.40;66.40
22925;DHT22;11628;51.072;3.712;2023-04-24T15:35:27;21.40;66.60
22925;DHT22;11628;51.072;3.712;2023-04-24T15:37:55;21.60;66.10
22925;DHT22;11628;51.072;3.712;2023-04-24T15:40:21;21.50;66.40
22925;DHT22;11628;51.072;3.712;2023-04-24T15:42:47;21.40;66.60
22925;DHT22;11628;51.072;3.712;2023-04-24T15:45:13;21.30;67.90
22925;DHT22;11628;51.072;3.712;2023-04-24T15:47:39;21.20;68.20
22925;DHT22;11628;51.072;3.712;2023-04-24T15:50:05;21.20;68.50
22925;DHT22;11628;51.072;3.712;2023-04-24T15:52:33;21.40;68.00
22925;DHT22;11628;51.072;3.712;2023-04-24T15:54:59;21.80;66.90
22925;DHT22;11628;51.072;3.712;2023-04-24T15:57:29;22.10;65.90
22925;DHT22;11628;51.072;3.712;2023-04-24T15:59:55;22.30;65.70
22925;DHT22;11628;51.072;3.712;2023-04-24T16:02:23;22.20;65.40